Time;durP1;ratioP1;P1;durP2;ratioP2;P2;SDS_P1;SDS_P2;PMS_P1;PMS_P2;Temp;Humidity;BMP_temperature;BMP_pressure;BME280_temperature;BME280_humidity;BME280_pressure;Samples;Min_cycle;Max_cycle;Signal;HPM_P1;HPM_P2
2022/04/14 00:01:31;;;;;;;12.60;6.07;;;;;;;19.94;57.25;100325.44;5034831;28;20506;-58
2022/04/14 00:03:56;;;;;;;12.63;6.10;;;;;;;19.94;57.43;100328.28;5034078;28;20176;-58
2022/04/14 00:06:22;;;;;;;12.17;5.33;;;;;;;19.93;57.45;100324.63;5034489;28;20628;-57
2022/04/14 00:08:47;;;;;;;11.30;5.60;;;;;;;19.95;57.24;100333.63;5033866;28;20223;-58
2022/04/14 00:11:13;;;;;;;9.67;5.53;;;;;;;19.94;57.31;100334.84;5034322;28;20218;-58
2022/04/14 00:13:38;;;;;;;9.60;5.43;;;;;;;19.93;57.44;100324.63;5016657;28;20208;-58
2022/04/14 00:16:04;;;;;;;11.00;5.43;;;;;;;19.93;57.63;100330.34;5034258;28;20184;-58
2022/04/14 00:18:30;;;;;;;14.67;5.03;;;;;;;19.94;57.61;100331.16;5033435;28;20173;-58
2022/04/14 00:20:55;;;;;;;10.57;5.40;;;;;;;19.92;57.58;100325.81;5034331;28;20480;-58
2022/04/14 00:23:21;;;;;;;12.17;5.80;;;;;;;19.91;57.57;100327.03;5033643;28;20169;-58
2022/04/14 00:25:46;;;;;;;11.10;5.40;;;;;;;19.91;57.45;100338.50;5033735;28;20697;-58
2022/04/14 00:28:11;;;;;;;10.10;4.93;;;;;;;19.92;57.48;100325.00;5034004;28;20173;-58
2022/04/14 00:30:38;;;;;;;9.93;5.53;;;;;;;19.92;57.44;100331.53;5034190;28;20188;-58
2022/04/14 00:33:04;;;;;;;8.50;4.60;;;;;;;19.92;57.43;100333.59;5034293;28;20176;-58
2022/04/14 00:35:29;;;;;;;9.30;5.10;;;;;;;19.91;57.36;100338.50;5034008;28;20423;-58
2022/04/14 00:37:54;;;;;;;11.43;5.10;;;;;;;19.91;57.47;100338.50;5033565;28;20246;-59
2022/04/14 00:40:20;;;;;;;9.70;5.13;;;;;;;19.93;57.42;100340.97;5016268;28;20572;-58
2022/04/14 00:42:45;;;;;;;10.67;5.53;;;;;;;19.93;57.69;100343.84;5016075;28;20295;-58
2022/04/14 00:45:11;;;;;;;9.13;5.40;;;;;;;19.92;57.51;100337.28;5015821;28;20647;-58
2022/04/14 00:47:36;;;;;;;9.43;5.10;;;;;;;19.91;57.53;100331.94;5033738;28;20183;-58
2022/04/14 00:50:03;;;;;;;10.07;5.30;;;;;;;19.91;57.60;100341.34;5033685;28;20231;-58
2022/04/14 00:52:28;;;;;;;9.47;4.73;;;;;;;19.91;57.55;100341.34;5033563;28;20184;-58
2022/04/14 00:54:54;;;;;;;11.70;5.20;;;;;;;19.91;57.53;100335.63;5033467;28;20788;-58
2022/04/14 00:57:19;;;;;;;9.57;5.37;;;;;;;19.91;57.43;100340.56;5033466;28;20204;-58
2022/04/14 00:59:45;;;;;;;9.43;4.57;;;;;;;19.90;57.57;100348.31;5033943;28;20185;-58
2022/04/14 01:02:10;;;;;;;8.73;4.77;;;;;;;19.91;57.66;100352.00;5033351;28;20184;-59
2022/04/14 01:04:36;;;;;;;10.33;5.50;;;;;;;19.91;57.86;100355.69;5032419;28;20322;-58
2022/04/14 01:07:01;;;;;;;12.27;5.27;;;;;;;19.90;57.43;100362.63;5014229;28;20200;-58
2022/04/14 01:09:28;;;;;;;11.40;6.00;;;;;;;19.90;57.32;100361.78;5033351;28;20274;-58
2022/04/14 01:11:54;;;;;;;10.30;5.10;;;;;;;19.89;57.54;100363.84;5033683;28;20179;-58
2022/04/14 01:14:35;;;;;;;9.37;4.70;;;;;;;19.90;57.65;100365.50;5033160;28;20958;-58
2022/04/14 01:17:05;;;;;;;8.93;4.87;;;;;;;19.90;57.55;100367.53;5032628;28;20204;-58
2022/04/14 01:19:30;;;;;;;8.60;4.50;;;;;;;19.90;57.67;100371.22;5033259;28;20765;-58
2022/04/14 01:22:06;;;;;;;7.60;4.70;;;;;;;19.90;57.46;100376.13;5033408;28;20431;-58
2022/04/14 01:24:32;;;;;;;15.83;5.33;;;;;;;19.89;57.48;100378.19;5032789;28;20169;-58
2022/04/14 01:26:58;;;;;;;8.13;4.67;;;;;;;19.88;57.53;100379.41;5033312;28;20922;-58
2022/04/14 01:29:25;;;;;;;8.80;5.03;;;;;;;19.89;57.63;100381.06;5031987;28;20169;-58
2022/04/14 01:31:50;;;;;;;9.20;4.77;;;;;;;19.90;57.57;100388.41;5032988;28;20430;-58
2022/04/14 01:34:16;;;;;;;9.37;5.27;;;;;;;19.89;57.59;100389.66;5032401;28;20423;-60
2022/04/14 01:36:41;;;;;;;8.37;4.90;;;;;;;19.90;57.46;100388.41;5032948;28;20227;-58
2022/04/14 01:39:08;;;;;;;7.87;4.73;;;;;;;19.89;57.58;100386.78;5032751;28;20172;-58
2022/04/14 01:41:34;;;;;;;6.33;4.40;;;;;;;19.90;57.59;100391.28;5032844;28;20588;-58
2022/04/14 01:43:59;;;;;;;7.47;4.40;;;;;;;19.90;57.32;100388.41;5032415;28;20419;-59
2022/04/14 01:46:25;;;;;;;7.57;4.13;;;;;;;19.91;57.72;100395.00;5032803;28;20450;-58
2022/04/14 01:48:50;;;;;;;12.90;4.43;;;;;;;19.89;57.60;100401.09;5032260;28;20224;-58
2022/04/14 01:51:15;;;;;;;8.97;4.73;;;;;;;19.90;57.46;100405.63;5032302;28;20620;-59
2022/04/14 01:53:41;;;;;;;8.07;4.50;;;;;;;19.88;57.61;100402.31;5032223;28;20185;-58
2022/04/14 01:56:06;;;;;;;10.50;5.10;;;;;;;19.88;57.60;100399.47;5032487;28;20255;-58
2022/04/14 01:58:33;;;;;;;8.60;5.10;;;;;;;19.88;57.68;100401.47;5031999;28;20205;-58
2022/04/14 02:00:58;;;;;;;7.73;4.20;;;;;;;19.88;57.57;100404.34;5032188;28;20423;-58
2022/04/14 02:03:24;;;;;;;7.97;4.63;;;;;;;19.88;57.50;100410.91;5031952;28;20269;-58
2022/04/14 02:05:49;;;;;;;10.00;4.57;;;;;;;19.88;57.71;100413.78;5032440;28;20623;-58
2022/04/14 02:08:15;;;;;;;9.20;4.97;;;;;;;19.88;57.50;100410.91;5032450;28;20168;-58
2022/04/14 02:10:40;;;;;;;9.43;4.43;;;;;;;19.88;57.70;100413.78;5032129;28;20640;-57
2022/04/14 02:13:05;;;;;;;8.87;4.90;;;;;;;19.89;57.63;100411.72;5032065;28;20181;-58
2022/04/14 02:15:31;;;;;;;5.97;3.80;;;;;;;19.87;57.61;100417.84;5031714;28;20177;-58
2022/04/14 02:17:57;;;;;;;9.63;4.90;;;;;;;19.88;57.48;100424.41;5031724;28;20200;-58
2022/04/14 02:20:23;;;;;;;6.93;4.13;;;;;;;19.89;57.51;100424.03;5031693;28;20226;-58
2022/04/14 02:22:48;;;;;;;6.60;4.37;;;;;;;19.87;57.54;100426.44;5032004;28;20898;-58
2022/04/14 02:25:15;;;;;;;7.93;4.37;;;;;;;19.87;57.48;100429.31;5031939;28;20234;-58
2022/04/14 02:27:40;;;;;;;9.80;4.87;;;;;;;19.88;57.51;100427.28;5032095;28;20180;-58
2022/04/14 02:30:06;;;;;;;6.13;3.87;;;;;;;19.86;57.39;100424.78;5031894;28;20434;-58
2022/04/14 02:32:32;;;;;;;7.07;4.50;;;;;;;19.87;57.59;100420.69;5031560;28;20238;-58
2022/04/14 02:34:57;;;;;;;8.70;4.60;;;;;;;19.87;57.54;100429.31;5031924;28;20434;-59
2022/04/14 02:37:23;;;;;;;10.50;4.83;;;;;;;19.87;57.52;100432.16;5032027;28;20216;-58
2022/04/14 02:39:48;;;;;;;8.23;4.37;;;;;;;19.87;57.23;100429.31;5031586;28;20181;-58
2022/04/14 02:42:14;;;;;;;5.63;3.77;;;;;;;19.88;57.49;100427.28;5031681;28;20160;-58
2022/04/14 02:44:39;;;;;;;8.97;4.07;;;;;;;19.87;57.31;100434.22;5031634;28;20650;-58
2022/04/14 02:47:05;;;;;;;10.43;4.57;;;;;;;19.87;57.46;100435.03;5013370;28;20238;-58
2022/04/14 02:49:30;;;;;;;7.07;4.50;;;;;;;19.86;57.60;100436.25;5010509;28;20533;-58
2022/04/14 02:51:55;;;;;;;6.10;3.70;;;;;;;19.87;57.46;100437.09;5011455;28;20601;-58
2022/04/14 02:54:21;;;;;;;6.47;3.87;;;;;;;19.86;57.51;100436.25;5010433;28;20416;-58
2022/04/14 02:56:46;;;;;;;9.10;4.50;;;;;;;19.85;57.69;100440.34;5011076;28;20205;-59
2022/04/14 02:59:12;;;;;;;6.80;4.23;;;;;;;19.86;57.69;100433.38;5011770;28;20541;-59
2022/04/14 03:01:37;;;;;;;6.10;3.70;;;;;;;19.84;57.52;100441.56;5011681;28;20855;-58
2022/04/14 03:04:03;;;;;;;8.57;4.17;;;;;;;19.86;57.68;100436.25;5011741;28;20192;-58
2022/04/14 03:06:28;;;;;;;8.33;4.43;;;;;;;19.85;57.74;100436.63;5012033;28;20620;-58
2022/04/14 03:08:54;;;;;;;8.20;4.53;;;;;;;19.87;57.70;100435.03;5011795;28;20546;-58
2022/04/14 03:11:19;;;;;;;9.00;4.57;;;;;;;19.86;57.54;100433.38;5011466;28;20855;-58
2022/04/14 03:13:45;;;;;;;6.80;3.97;;;;;;;19.86;57.69;100433.38;5011959;28;20231;-58
2022/04/14 03:16:11;;;;;;;8.47;4.30;;;;;;;19.85;57.49;100436.63;5011365;28;20173;-58
2022/04/14 03:18:36;;;;;;;8.13;4.40;;;;;;;19.87;57.67;100434.22;5011376;28;20655;-58
2022/04/14 03:21:02;;;;;;;8.10;4.10;;;;;;;19.85;57.60;100437.47;5011644;28;20403;-58
2022/04/14 03:23:27;;;;;;;6.87;3.40;;;;;;;19.85;57.57;100442.34;5011816;28;20177;-58
2022/04/14 03:25:53;;;;;;;5.67;3.47;;;;;;;19.85;57.48;100448.94;5011388;28;20189;-58
2022/04/14 03:28:18;;;;;;;6.00;3.23;;;;;;;19.85;57.79;100448.09;4994108;28;20169;-58
2022/04/14 03:30:45;;;;;;;6.67;3.33;;;;;;;19.85;57.50;100453.81;5011367;28;20645;-58
2022/04/14 03:33:10;;;;;;;5.37;3.70;;;;;;;19.85;57.42;100451.78;5011815;28;20212;-58
2022/04/14 03:35:36;;;;;;;6.13;3.90;;;;;;;19.84;57.50;100458.75;5011437;28;20415;-58
2022/04/14 03:38:01;;;;;;;7.33;4.20;;;;;;;19.84;57.49;100452.16;5011310;28;20193;-58
2022/04/14 03:40:27;;;;;;;6.40;3.70;;;;;;;19.83;57.57;100451.38;5011203;28;20184;-58
2022/04/14 03:42:52;;;;;;;6.20;3.40;;;;;;;19.84;57.49;100452.16;5011699;28;20703;-58
2022/04/14 03:45:17;;;;;;;10.57;3.90;;;;;;;19.83;57.55;100448.50;5010581;28;20193;-58
2022/04/14 03:47:43;;;;;;;5.67;3.80;;;;;;;19.84;57.39;100449.31;5011383;28;20227;-59
2022/04/14 03:50:08;;;;;;;7.37;3.90;;;;;;;19.84;57.52;100453.00;5027144;28;20236;-58
2022/04/14 03:52:34;;;;;;;9.30;4.60;;;;;;;19.84;57.62;100449.31;5031653;28;20169;-59
2022/04/14 03:54:59;;;;;;;7.70;3.87;;;;;;;19.85;57.72;100453.81;5016815;28;20183;-58
2022/04/14 03:57:25;;;;;;;6.03;3.37;;;;;;;19.84;57.40;100455.88;5034603;28;20196;-59
2022/04/14 03:59:50;;;;;;;7.50;4.33;;;;;;;19.85;57.51;100457.53;5034812;28;20662;-59
2022/04/14 04:02:16;;;;;;;6.50;3.90;;;;;;;19.84;57.26;100455.88;5034703;28;20180;-59
2022/04/14 04:04:42;;;;;;;8.83;3.53;;;;;;;19.83;57.51;100457.09;5000267;28;20182;-58
2022/04/14 04:07:07;;;;;;;7.07;4.27;;;;;;;19.83;57.56;100453.41;5034542;28;20537;-58
2022/04/14 04:09:33;;;;;;;6.90;4.03;;;;;;;19.83;57.84;100456.25;5034507;28;20187;-58
2022/04/14 04:11:59;;;;;;;6.80;3.70;;;;;;;19.84;57.49;100452.16;5034511;28;20168;-59
2022/04/14 04:14:25;;;;;;;5.70;3.33;;;;;;;19.85;57.44;100454.66;5034240;28;20668;-58
2022/04/14 04:16:50;;;;;;;7.87;4.00;;;;;;;19.83;57.65;100451.38;5033636;28;20458;-58
2022/04/14 04:19:16;;;;;;;7.10;3.93;;;;;;;19.85;57.57;100453.81;5034206;28;20194;-59
2022/04/14 04:21:41;;;;;;;7.30;3.30;;;;;;;19.86;57.38;100456.31;5034262;28;20173;-59
2022/04/14 04:24:07;;;;;;;8.10;3.80;;;;;;;19.84;57.40;100461.63;5034095;28;20230;-58
2022/04/14 04:26:32;;;;;;;5.87;3.53;;;;;;;19.84;57.47;100461.63;5034008;28;20169;-58
2022/04/14 04:28:57;;;;;;;6.30;3.47;;;;;;;19.83;57.49;100462.81;5034206;28;20585;-58
2022/04/14 04:31:23;;;;;;;6.60;3.50;;;;;;;19.83;57.42;100462.81;5033893;28;20173;-58
2022/04/14 04:33:51;;;;;;;7.23;4.53;;;;;;;19.84;57.56;100463.63;5032476;28;20238;-59
2022/04/14 04:36:17;;;;;;;5.83;3.67;;;;;;;19.84;57.56;100461.63;5024298;28;20181;-58
2022/04/14 04:38:42;;;;;;;6.37;4.00;;;;;;;19.83;57.52;100464.84;5033974;28;20407;-58
2022/04/14 04:41:08;;;;;;;6.23;3.60;;;;;;;19.82;57.59;100469.75;5033773;28;20426;-58
2022/04/14 04:43:34;;;;;;;7.20;3.97;;;;;;;19.84;57.49;100477.97;5033820;28;20172;-58
2022/04/14 04:45:59;;;;;;;7.10;4.27;;;;;;;19.82;57.76;100472.59;5033070;28;20199;-58
2022/04/14 04:48:24;;;;;;;5.50;3.73;;;;;;;19.83;57.51;100484.91;5033701;28;20507;-58
2022/04/14 04:50:51;;;;;;;5.90;3.57;;;;;;;19.82;57.48;100484.06;5033608;28;20235;-58
2022/04/14 04:53:16;;;;;;;5.03;3.40;;;;;;;19.83;57.56;100485.75;5034094;28;20758;-60
2022/04/14 04:55:42;;;;;;;6.20;3.77;;;;;;;19.83;57.51;100496.38;5032748;28;20423;-59
2022/04/14 04:58:07;;;;;;;4.00;3.00;;;;;;;19.84;57.47;100498.84;5031543;28;20287;-58
2022/04/14 05:00:33;;;;;;;4.97;3.40;;;;;;;19.84;57.52;100501.72;5031303;28;20168;-58
2022/04/14 05:02:58;;;;;;;6.80;3.57;;;;;;;19.84;57.43;100492.28;5033489;28;20191;-58
2022/04/14 05:05:24;;;;;;;4.63;2.93;;;;;;;19.83;57.58;100499.22;5033243;28;20172;-58
2022/04/14 05:07:49;;;;;;;6.33;3.63;;;;;;;19.82;57.55;100504.13;5033919;28;20180;-58
2022/04/14 05:10:15;;;;;;;7.83;3.87;;;;;;;19.82;57.56;100504.13;5033372;28;20611;-59
2022/04/14 05:12:41;;;;;;;5.50;3.43;;;;;;;19.82;57.80;100504.13;5031652;28;20632;-59
2022/04/14 05:15:06;;;;;;;5.43;3.30;;;;;;;19.84;57.69;100509.47;5033043;28;20184;-58
2022/04/14 05:17:32;;;;;;;6.47;3.60;;;;;;;19.82;57.56;100512.72;5033093;28;20535;-58
2022/04/14 05:19:57;;;;;;;4.90;3.00;;;;;;;19.83;57.49;100511.53;5032730;28;20226;-58
2022/04/14 05:22:23;;;;;;;8.47;3.80;;;;;;;19.83;57.71;100514.41;5033004;28;20180;-58
2022/04/14 05:24:48;;;;;;;5.60;3.30;;;;;;;19.83;57.49;100514.41;5032537;28;20176;-58
2022/04/14 05:27:14;;;;;;;7.90;3.63;;;;;;;19.83;57.56;100519.28;5033209;28;20169;-59
2022/04/14 05:29:39;;;;;;;6.50;3.57;;;;;;;19.84;57.60;100509.47;5032592;28;20172;-59
2022/04/14 05:32:05;;;;;;;5.73;3.40;;;;;;;19.83;57.51;100525.88;5032523;28;20585;-58
2022/04/14 05:34:31;;;;;;;4.27;2.90;;;;;;;19.83;57.44;100516.44;5032838;28;20259;-58
2022/04/14 05:36:56;;;;;;;5.13;3.20;;;;;;;19.85;57.41;100526.28;5033018;28;20978;-59
2022/04/14 05:39:22;;;;;;;5.03;3.20;;;;;;;19.84;57.52;100523.81;5032725;28;20202;-59
2022/04/14 05:41:47;;;;;;;6.70;3.70;;;;;;;19.85;57.39;100523.44;5032490;28;20180;-59
2022/04/14 05:44:13;;;;;;;7.13;3.80;;;;;;;19.91;57.40;100521.88;5030831;28;20195;-58
2022/04/14 05:46:38;;;;;;;14.73;4.47;;;;;;;19.97;57.84;100531.00;5031206;28;20222;-59
2022/04/14 05:49:03;;;;;;;13.83;5.60;;;;;;;20.30;58.44;100534.81;5030646;28;20213;-59
2022/04/14 05:51:29;;;;;;;14.73;7.97;;;;;;;20.52;58.89;100536.75;5031778;28;20173;-59
2022/04/14 05:53:54;;;;;;;17.00;6.53;;;;;;;20.44;58.26;100543.63;5032659;28;20176;-59
2022/04/14 05:56:20;;;;;;;17.33;5.67;;;;;;;20.26;56.19;100545.41;5031505;28;20676;-59
2022/04/14 05:58:46;;;;;;;12.93;5.57;;;;;;;20.14;55.56;100548.50;5031950;28;20195;-59
2022/04/14 06:01:12;;;;;;;13.60;5.33;;;;;;;20.12;55.25;100544.38;5031826;28;20275;-59
2022/04/14 06:03:38;;;;;;;14.53;6.47;;;;;;;20.06;54.71;100546.69;5032556;28;20271;-59
2022/04/14 06:06:04;;;;;;;13.87;6.93;;;;;;;20.03;53.91;100543.78;5030819;28;20176;-59
2022/04/14 06:08:30;;;;;;;17.30;7.57;;;;;;;20.02;54.43;100548.66;5014120;28;20767;-59
2022/04/14 06:10:55;;;;;;;25.40;9.30;;;;;;;20.05;53.96;100547.91;5030511;28;20446;-59
2022/04/14 06:13:21;;;;;;;19.77;7.63;;;;;;;20.08;54.38;100550.03;5030567;28;20185;-59
2022/04/14 06:15:46;;;;;;;20.97;6.57;;;;;;;20.11;53.70;100551.31;5031262;28;20675;-59
2022/04/14 06:18:12;;;;;;;15.20;6.70;;;;;;;20.22;54.17;100550.25;5031813;28;20243;-59
2022/04/14 06:20:37;;;;;;;12.97;6.13;;;;;;;20.25;54.84;100560.94;5031925;28;20263;-59
2022/04/14 06:23:03;;;;;;;15.73;6.93;;;;;;;20.30;55.49;100556.91;5031430;28;20181;-58
2022/04/14 06:25:28;;;;;;;14.10;6.50;;;;;;;20.30;55.72;100554.88;5031534;28;20639;-59
2022/04/14 06:27:55;;;;;;;15.93;7.20;;;;;;;20.40;55.99;100561.97;5031405;28;20250;-59
2022/04/14 06:30:20;;;;;;;14.20;6.63;;;;;;;20.48;55.06;100563.75;5031721;28;20240;-59
2022/04/14 06:32:59;;;;;;;14.17;6.30;;;;;;;20.51;55.24;100569.53;5031741;28;20427;-58
2022/04/14 06:35:25;;;;;;;15.20;7.33;;;;;;;20.52;55.66;100561.75;5014207;28;20644;-59
2022/04/14 06:37:50;;;;;;;19.20;5.93;;;;;;;20.57;55.53;100562.22;5031464;28;20494;-59
2022/04/14 06:40:16;;;;;;;13.37;6.00;;;;;;;20.53;56.30;100567.09;5031103;28;20184;-58
2022/04/14 06:42:41;;;;;;;22.90;6.27;;;;;;;20.54;56.84;100568.75;5031334;28;20192;-59
2022/04/14 06:45:07;;;;;;;17.03;6.30;;;;;;;20.46;57.08;100564.13;5031385;28;20644;-59
2022/04/14 06:47:33;;;;;;;16.13;6.50;;;;;;;20.39;56.83;100571.81;5030359;28;20169;-59
2022/04/14 06:49:58;;;;;;;11.37;5.43;;;;;;;20.35;56.37;100568.88;5030620;28;20228;-58
2022/04/14 06:52:24;;;;;;;18.10;5.60;;;;;;;20.32;57.09;100574.56;5031365;28;20199;-60
2022/04/14 06:54:49;;;;;;;10.30;5.23;;;;;;;20.29;56.37;100573.31;5031972;28;20668;-59
2022/04/14 06:57:15;;;;;;;11.90;4.90;;;;;;;20.28;56.86;100563.06;5030607;28;20593;-59
2022/04/14 06:59:41;;;;;;;11.00;4.73;;;;;;;20.26;56.36;100568.34;5031454;28;20192;-59
2022/04/14 07:02:06;;;;;;;17.97;6.57;;;;;;;20.23;56.13;100571.16;5031483;28;20690;-58
2022/04/14 07:04:35;;;;;;;12.20;5.20;;;;;;;20.22;56.43;100572.38;5030807;28;20199;-58
2022/04/14 07:07:00;;;;;;;19.30;5.43;;;;;;;20.27;56.62;100569.16;5031561;28;20644;-58
2022/04/14 07:09:31;;;;;;;15.27;4.73;;;;;;;20.27;56.63;100564.25;5031174;28;20431;-58
2022/04/14 07:11:59;;;;;;;14.03;5.50;;;;;;;20.30;56.40;100568.38;5031608;28;20180;-58
2022/04/14 07:14:26;;;;;;;17.23;4.93;;;;;;;20.29;57.06;100575.34;5030257;28;20963;-59
2022/04/14 07:16:51;;;;;;;11.83;4.90;;;;;;;20.27;57.20;100578.59;5031015;28;20463;-59
2022/04/14 07:19:16;;;;;;;11.90;5.70;;;;;;;20.30;56.70;100579.84;5031201;28;20424;-59
2022/04/14 07:21:42;;;;;;;10.40;4.90;;;;;;;20.28;56.67;100583.13;5031341;28;20180;-59
2022/04/14 07:24:07;;;;;;;15.23;5.30;;;;;;;20.28;57.08;100580.25;5030593;28;20171;-58
2022/04/14 07:26:33;;;;;;;13.80;4.73;;;;;;;20.27;56.95;100584.31;5029737;28;20168;-58
2022/04/14 07:28:58;;;;;;;10.10;4.47;;;;;;;20.26;57.81;100590.47;5034150;28;20177;-59
2022/04/14 07:31:24;;;;;;;16.87;5.10;;;;;;;20.25;57.13;100589.63;5035361;28;20176;-59
2022/04/14 07:33:49;;;;;;;14.20;5.10;;;;;;;20.27;57.05;100592.09;5034829;28;20173;-59
2022/04/14 07:36:19;;;;;;;9.80;4.63;;;;;;;20.27;57.02;100592.09;5035258;28;20176;-60
2022/04/14 07:38:44;;;;;;;13.40;5.03;;;;;;;20.27;57.35;100592.09;5035113;28;20184;-59
2022/04/14 07:41:10;;;;;;;19.77;5.30;;;;;;;20.25;57.13;100589.63;5035030;28;20438;-60
2022/04/14 07:43:35;;;;;;;17.20;5.77;;;;;;;20.26;57.21;100593.31;5034533;28;20180;-59
2022/04/14 07:46:01;;;;;;;10.07;4.50;;;;;;;20.25;57.05;100595.34;5034126;28;20686;-61
2022/04/14 07:48:26;;;;;;;9.37;4.30;;;;;;;20.24;57.20;100593.72;5033255;28;20176;-59
2022/04/14 07:50:52;;;;;;;9.87;5.47;;;;;;;20.24;57.78;100602.31;5034833;28;20173;-59
2022/04/14 07:53:17;;;;;;;11.60;4.83;;;;;;;20.23;57.34;100603.53;5034820;28;20231;-59
2022/04/14 07:55:43;;;;;;;12.43;4.70;;;;;;;20.21;57.38;100588.72;5034706;28;20157;-59
2022/04/14 07:58:09;;;;;;;8.37;4.43;;;;;;;20.22;57.62;100601.84;5034299;28;20196;-60
2022/04/14 08:00:35;;;;;;;12.70;4.60;;;;;;;20.22;57.42;100601.03;5034805;28;20180;-60
2022/04/14 08:03:01;;;;;;;9.93;5.00;;;;;;;20.22;57.71;100603.91;5034531;28;20712;-59
2022/04/14 08:05:36;;;;;;;12.10;4.53;;;;;;;20.21;57.16;100602.25;5034444;28;20452;-60
2022/04/14 08:08:11;;;;;;;9.90;4.77;;;;;;;20.19;57.57;100602.63;5034585;28;20160;-60
2022/04/14 08:10:37;;;;;;;16.37;4.70;;;;;;;20.20;57.40;100597.72;5034480;28;20434;-59
2022/04/14 08:13:03;;;;;;;9.27;4.50;;;;;;;20.17;58.06;100609.97;5034615;28;20423;-59
2022/04/14 08:15:29;;;;;;;13.33;4.63;;;;;;;20.19;58.02;100598.94;5034095;28;20510;-60
2022/04/14 08:17:55;;;;;;;8.30;3.80;;;;;;;20.18;58.11;100606.72;5033615;28;20265;-59
2022/04/14 08:20:20;;;;;;;17.03;5.50;;;;;;;20.17;57.66;100604.22;5034336;28;20245;-59
2022/04/14 08:22:50;;;;;;;8.33;4.13;;;;;;;20.16;57.65;100612.00;5016581;28;20526;-59
2022/04/14 08:25:20;;;;;;;11.30;4.40;;;;;;;20.18;57.55;100615.31;5034214;28;20184;-59
2022/04/14 08:27:47;;;;;;;9.17;4.63;;;;;;;20.16;57.72;100612.00;5033626;28;20426;-59
2022/04/14 08:30:13;;;;;;;9.23;4.00;;;;;;;20.15;57.74;100612.38;5034119;28;20419;-59
2022/04/14 08:32:38;;;;;;;10.50;4.10;;;;;;;20.15;57.79;100613.22;5033540;28;20422;-59
2022/04/14 08:35:04;;;;;;;7.20;4.03;;;;;;;20.16;57.81;100608.31;5032138;28;20411;-59
2022/04/14 08:37:30;;;;;;;9.60;5.60;;;;;;;20.15;57.74;100613.22;5032784;28;20236;-59
2022/04/14 08:39:56;;;;;;;9.10;4.30;;;;;;;20.14;57.57;100617.28;5014890;28;20187;-61
2022/04/14 08:42:25;;;;;;;11.30;4.73;;;;;;;20.16;57.77;100622.66;5033699;28;20647;-59
2022/04/14 08:44:55;;;;;;;8.73;4.30;;;;;;;20.16;57.79;100614.06;5033686;28;20414;-59
2022/04/14 08:47:21;;;;;;;9.60;4.60;;;;;;;20.15;57.73;100610.34;5016203;28;20557;-59
2022/04/14 08:49:48;;;;;;;8.10;4.03;;;;;;;20.14;57.87;100614.44;5012541;28;20475;-59
2022/04/14 08:52:15;;;;;;;8.00;3.67;;;;;;;20.15;57.86;100606.63;5014227;28;20165;-59
2022/04/14 08:54:43;;;;;;;8.40;4.30;;;;;;;20.13;57.77;100617.69;5012238;28;20422;-59
2022/04/14 08:57:13;;;;;;;12.70;4.70;;;;;;;20.13;57.80;100620.53;5012475;28;20474;-59
2022/04/14 08:59:47;;;;;;;9.37;4.57;;;;;;;20.12;57.72;100619.69;5012781;28;20809;-59
2022/04/14 09:02:14;;;;;;;9.13;4.63;;;;;;;20.13;57.81;100624.25;5012169;28;20462;-59
2022/04/14 09:04:41;;;;;;;7.60;4.43;;;;;;;20.14;57.69;100617.28;5013600;28;20397;-59
2022/04/14 09:07:07;;;;;;;19.23;4.10;;;;;;;20.13;58.00;100620.53;5014157;28;20420;-59
2022/04/14 09:09:33;;;;;;;8.27;4.60;;;;;;;20.12;57.98;100622.56;5011956;28;20424;-59
2022/04/14 09:11:58;;;;;;;11.43;4.30;;;;;;;20.13;57.82;100621.38;5013708;28;20412;-59
2022/04/14 09:14:24;;;;;;;11.97;4.37;;;;;;;20.13;57.88;100627.13;5013138;28;20243;-59
2022/04/14 09:16:50;;;;;;;7.87;4.33;;;;;;;20.12;57.87;100622.56;4999673;28;20694;-59
2022/04/14 09:19:16;;;;;;;7.67;3.70;;;;;;;20.15;57.75;100623.84;5012970;28;20645;-59
2022/04/14 09:22:26;;;;;;;7.03;4.10;;;;;;;20.13;57.71;100624.25;5012163;28;20462;-59
2022/04/14 09:24:54;;;;;;;7.47;3.87;;;;;;;20.11;57.82;100623.78;5000232;28;20228;-59
2022/04/14 09:27:33;;;;;;;9.13;4.20;;;;;;;20.13;58.01;100614.81;5013760;28;20448;-59
2022/04/14 09:30:00;;;;;;;7.07;3.70;;;;;;;20.12;57.87;100613.97;5013049;28;20416;-59
2022/04/14 09:32:30;;;;;;;7.53;3.40;;;;;;;20.14;57.80;100617.28;5013211;28;20424;-59
2022/04/14 09:35:03;;;;;;;8.27;4.47;;;;;;;20.13;58.07;100614.81;5013120;28;20412;-59
2022/04/14 09:37:29;;;;;;;9.27;4.37;;;;;;;20.13;57.91;100614.81;5013155;28;20444;-59
2022/04/14 09:40:02;;;;;;;8.50;4.07;;;;;;;20.12;57.86;100613.97;5013046;28;20775;-59
2022/04/14 09:42:32;;;;;;;9.07;4.30;;;;;;;20.13;57.78;100611.94;5013142;28;20171;-60
2022/04/14 09:45:20;;;;;;;15.17;4.67;;;;;;;20.13;57.92;100615.66;5012685;28;20404;-59
2022/04/14 09:47:49;;;;;;;9.10;4.40;;;;;;;20.12;57.87;100613.97;5012920;28;20408;-59
2022/04/14 09:50:32;;;;;;;8.33;4.00;;;;;;;20.13;57.57;100627.13;5028152;28;20884;-59
2022/04/14 09:53:08;;;;;;;9.40;4.50;;;;;;;20.13;57.83;100621.38;5031244;28;20773;-59
2022/04/14 09:55:51;;;;;;;6.83;3.53;;;;;;;20.11;57.83;100620.91;5032372;28;20443;-59
2022/04/14 09:58:18;;;;;;;12.70;4.13;;;;;;;20.11;57.98;100618.06;5032334;28;20448;-59
2022/04/14 10:00:44;;;;;;;8.40;3.70;;;;;;;20.13;57.90;100621.38;5032427;28;20423;-59
2022/04/14 10:03:14;;;;;;;8.13;4.10;;;;;;;20.14;57.90;100619.31;5032514;28;20422;-59
2022/04/14 10:05:40;;;;;;;11.80;3.90;;;;;;;20.13;57.76;100618.50;5032215;28;20425;-59
2022/04/14 10:08:08;;;;;;;8.90;3.30;;;;;;;20.13;57.94;100626.28;5032177;28;20492;-59
2022/04/14 10:10:37;;;;;;;7.03;3.60;;;;;;;20.12;58.02;100618.91;5031980;28;20176;-59
2022/04/14 10:13:05;;;;;;;8.30;4.00;;;;;;;20.11;57.89;100626.66;5032558;28;20415;-59
2022/04/14 10:15:32;;;;;;;11.77;3.90;;;;;;;20.11;57.82;100620.91;5032152;28;20442;-60
2022/04/14 10:17:57;;;;;;;6.80;3.67;;;;;;;20.11;58.03;100620.91;5030979;28;20446;-59
2022/04/14 10:20:25;;;;;;;7.57;3.93;;;;;;;20.11;57.93;100612.31;5030140;28;20419;-59
2022/04/14 10:22:50;;;;;;;9.67;4.37;;;;;;;20.12;57.93;100610.28;5031610;28;20176;-59
2022/04/14 10:25:16;;;;;;;6.73;3.47;;;;;;;20.12;57.82;100613.97;5031480;28;20890;-61
2022/04/14 10:27:41;;;;;;;7.63;3.80;;;;;;;20.13;58.11;100609.91;5032367;28;20169;-60
2022/04/14 10:30:07;;;;;;;9.10;3.90;;;;;;;20.13;57.91;100614.81;5031966;28;20181;-58
2022/04/14 10:32:34;;;;;;;10.47;3.77;;;;;;;20.12;57.98;100616.03;5032192;28;20196;-58
2022/04/14 10:35:00;;;;;;;7.60;3.17;;;;;;;20.10;57.91;100619.28;5024882;28;20266;-58
2022/04/14 10:37:29;;;;;;;8.00;3.70;;;;;;;20.10;57.92;100619.28;4998160;28;20516;-58
2022/04/14 10:39:55;;;;;;;6.83;3.60;;;;;;;20.11;58.18;100622.97;4997822;28;20419;-58
2022/04/14 10:42:27;;;;;;;8.00;4.07;;;;;;;20.10;57.96;100616.41;5030750;28;20465;-58
2022/04/14 10:44:53;;;;;;;6.93;3.57;;;;;;;20.12;57.86;100624.63;5013553;28;20177;-58
2022/04/14 10:47:43;;;;;;;7.90;3.97;;;;;;;20.12;57.81;100624.63;5031469;28;20453;-57
2022/04/14 10:50:28;;;;;;;5.70;3.00;;;;;;;20.10;57.71;100625.00;5031375;28;20282;-58
2022/04/14 10:53:19;;;;;;;7.37;3.43;;;;;;;20.12;57.93;100618.91;5031760;28;20415;-58
2022/04/14 10:55:46;;;;;;;6.73;3.30;;;;;;;20.12;57.90;100624.63;5027227;28;20835;-58
2022/04/14 10:58:27;;;;;;;5.53;2.77;;;;;;;20.11;57.82;100622.97;5031723;28;20483;-58
2022/04/14 11:00:53;;;;;;;5.53;3.03;;;;;;;20.11;57.99;100620.91;5031509;28;20415;-58
2022/04/14 11:03:18;;;;;;;7.30;3.50;;;;;;;20.11;57.82;100623.78;5031409;28;20476;-58
2022/04/14 11:05:45;;;;;;;7.43;3.73;;;;;;;20.09;57.93;100617.63;5031266;28;20177;-58
2022/04/14 11:08:26;;;;;;;7.13;3.20;;;;;;;20.12;57.92;100610.28;5031006;28;20214;-58
2022/04/14 11:11:05;;;;;;;9.27;3.63;;;;;;;20.10;57.89;100609.84;5031037;28;20430;-58
2022/04/14 11:13:58;;;;;;;9.77;3.53;;;;;;;20.11;57.94;100606.59;5014963;28;20804;-58
2022/04/14 11:16:38;;;;;;;8.13;3.40;;;;;;;20.09;58.09;100611.03;5031385;28;20777;-58
2022/04/14 11:19:19;;;;;;;6.00;3.40;;;;;;;20.12;57.96;100607.44;5031449;28;20423;-58
2022/04/14 11:22:13;;;;;;;5.80;3.60;;;;;;;20.11;57.91;100614.38;5031781;28;20469;-58